Time;durP1;ratioP1;P1;durP2;ratioP2;P2;SDS_P1;SDS_P2;PMS_P1;PMS_P2;Temp;Humidity;BMP_temperature;BMP_pressure;BME280_temperature;BME280_humidity;BME280_pressure;Samples;Min_cycle;Max_cycle;Signal;HPM_P1;HPM_P2
2023/01/14 00:01:30;;;;;;;22.35;6.78;;;10.90;99.90;;;11.10;70.43;101273.66;5094567;28;20496;-65
2023/01/14 00:04:00;;;;;;;26.80;6.57;;;10.90;99.90;;;11.18;71.01;101274.53;5094466;28;20040;-65
2023/01/14 00:06:32;;;;;;;31.45;8.30;;;10.90;99.90;;;11.12;72.30;101263.97;5094645;28;20074;-65
2023/01/14 00:09:04;;;;;;;32.95;7.65;;;10.90;99.90;;;11.04;73.76;101259.53;5094606;28;20105;-65
2023/01/14 00:11:50;;;;;;;32.67;7.93;;;10.80;99.90;;;10.95;74.83;101259.53;5094414;28;20447;-65
2023/01/14 00:14:21;;;;;;;27.08;7.30;;;10.70;99.90;;;10.86;75.72;101277.19;5094591;28;20048;-65
2023/01/14 00:16:52;;;;;;;37.70;7.78;;;10.60;99.90;;;10.89;75.74;101265.72;5094563;28;20119;-64
2023/01/14 00:19:23;;;;;;;36.05;8.57;;;10.60;99.90;;;10.94;76.16;101269.25;5093311;28;20143;-64
2023/01/14 00:21:54;;;;;;;31.83;7.88;;;10.60;99.90;;;10.94;76.12;101263.09;5094671;28;20047;-64
2023/01/14 00:24:24;;;;;;;32.40;7.93;;;10.60;99.90;;;10.93;75.99;101274.53;5093947;28;20044;-64
2023/01/14 00:26:54;;;;;;;35.20;8.57;;;10.70;99.90;;;10.77;76.48;101269.25;5094173;28;20054;-64
2023/01/14 00:29:26;;;;;;;34.25;7.90;;;10.50;99.90;;;10.86;76.52;101281.56;5093997;28;20074;-65
2023/01/14 00:31:55;;;;;;;32.17;7.85;;;10.50;99.90;;;10.80;76.18;101276.31;5075859;28;20095;-65
2023/01/14 00:34:28;;;;;;;36.15;8.15;;;10.50;99.90;;;10.74;76.64;101282.44;5094145;28;20044;-65
2023/01/14 00:36:58;;;;;;;28.83;6.93;;;10.50;99.90;;;10.74;76.58;101277.16;5092757;28;20043;-65
2023/01/14 00:39:26;;;;;;;33.00;8.10;;;10.50;99.90;;;10.83;76.43;101276.28;5093834;28;20063;-65
2023/01/14 00:41:55;;;;;;;32.33;7.65;;;10.50;99.90;;;10.73;76.20;101272.75;5075782;28;20393;-65
2023/01/14 00:44:24;;;;;;;30.60;7.43;;;10.50;99.90;;;10.71;76.64;101270.97;5093736;28;20105;-65
2023/01/14 00:46:53;;;;;;;31.85;8.98;;;10.50;99.90;;;10.62;76.93;101268.31;5075822;28;20139;-65
2023/01/14 00:49:26;;;;;;;30.52;8.02;;;10.40;99.90;;;10.57;77.30;101283.28;5093824;28;20137;-65
2023/01/14 00:51:54;;;;;;;38.63;8.35;;;10.30;99.90;;;10.56;77.42;101276.25;5093710;28;20391;-64
2023/01/14 00:54:23;;;;;;;26.30;7.75;;;10.30;99.90;;;10.44;77.76;101260.34;5075696;28;20039;-64
2023/01/14 00:56:51;;;;;;;35.83;8.95;;;10.20;99.90;;;10.42;77.87;101260.34;5075667;28;20080;-65
2023/01/14 00:59:23;;;;;;;30.35;8.13;;;10.20;99.90;;;10.44;77.84;101260.34;5075353;28;20070;-65
2023/01/14 01:01:54;;;;;;;31.90;7.55;;;10.20;99.90;;;10.42;77.57;101243.59;5093326;28;20551;-65
2023/01/14 01:04:25;;;;;;;33.58;8.68;;;10.20;99.90;;;10.43;77.66;101254.16;5093569;28;20123;-65
2023/01/14 01:06:53;;;;;;;32.17;7.57;;;10.20;99.90;;;10.44;77.94;101241.84;5075286;28;20055;-65
2023/01/14 01:09:22;;;;;;;30.45;7.30;;;10.20;99.90;;;10.41;77.81;101234.81;5093471;28;20119;-65
2023/01/14 01:11:50;;;;;;;30.63;7.28;;;10.20;99.90;;;10.42;77.73;101230.38;5075057;28;20124;-65
2023/01/14 01:14:19;;;;;;;30.55;8.48;;;10.20;99.90;;;10.34;77.90;101219.78;5093413;28;20040;-65
2023/01/14 01:16:47;;;;;;;33.58;8.60;;;10.20;99.90;;;10.42;78.30;101235.66;5075036;28;20044;-65
2023/01/14 01:19:16;;;;;;;30.77;8.50;;;10.20;99.90;;;10.51;78.72;101248.91;5093270;28;20047;-65
2023/01/14 01:21:46;;;;;;;29.98;7.68;;;10.20;99.90;;;10.53;78.46;101242.72;5093231;28;20189;-65
2023/01/14 01:24:15;;;;;;;35.40;8.23;;;10.30;99.90;;;10.52;78.56;101250.66;5093327;28;20040;-65
2023/01/14 01:26:45;;;;;;;34.42;7.72;;;10.20;99.90;;;10.55;78.47;101253.34;5074717;28;20060;-65
2023/01/14 01:29:14;;;;;;;34.20;7.80;;;10.20;99.90;;;10.50;78.72;101249.78;5093784;28;20040;-65
2023/01/14 01:31:43;;;;;;;32.88;8.57;;;10.20;99.90;;;10.47;78.86;101255.94;5092506;28;20106;-65
2023/01/14 01:34:11;;;;;;;38.70;8.95;;;10.20;99.90;;;10.44;79.06;101250.66;5093175;28;20040;-65
2023/01/14 01:36:40;;;;;;;34.50;8.85;;;10.10;99.90;;;10.43;79.05;101242.72;5093148;28;20097;-66
2023/01/14 01:39:10;;;;;;;36.38;9.20;;;10.10;99.90;;;10.43;79.07;101242.72;5093019;28;20048;-65
2023/01/14 01:41:38;;;;;;;28.80;7.70;;;10.10;99.90;;;10.42;79.01;101251.53;5093187;28;20126;-65
2023/01/14 01:44:10;;;;;;;34.10;8.30;;;10.10;99.90;;;10.33;79.22;101240.94;5093201;28;20051;-65
2023/01/14 01:46:40;;;;;;;28.27;7.75;;;10.10;99.90;;;10.34;79.65;101237.41;5092947;28;20064;-65
2023/01/14 01:49:12;;;;;;;32.28;8.05;;;10.10;99.90;;;10.31;79.66;101238.31;5093702;28;20047;-65
2023/01/14 01:51:48;;;;;;;30.92;7.80;;;10.10;99.90;;;10.29;80.02;101228.59;5075002;28;20051;-65
2023/01/14 01:54:22;;;;;;;32.45;8.45;;;10.00;99.90;;;10.11;79.98;101223.25;5091932;28;20496;-65
2023/01/14 01:56:52;;;;;;;27.95;8.10;;;10.00;99.90;;;9.90;80.57;101197.59;5093023;28;20093;-65
2023/01/14 01:59:24;;;;;;;34.85;7.97;;;9.90;99.90;;;9.99;80.84;101222.28;5074427;28;20131;-65
2023/01/14 02:01:55;;;;;;;34.88;7.88;;;9.80;99.90;;;9.97;81.30;101216.13;5092839;28;20048;-65
2023/01/14 02:04:24;;;;;;;31.55;7.72;;;9.80;99.90;;;9.94;81.21;101196.75;5092811;28;20378;-65
2023/01/14 02:06:52;;;;;;;24.48;7.00;;;9.70;99.90;;;9.89;82.09;101195.84;5074661;28;20125;-65
2023/01/14 02:09:22;;;;;;;33.40;8.57;;;9.70;99.90;;;9.90;82.50;101194.97;5092903;28;20044;-65
2023/01/14 02:12:18;;;;;;;32.78;8.15;;;9.70;99.90;;;9.87;82.71;101197.59;5092946;28;20081;-65
2023/01/14 02:15:06;;;;;;;39.03;7.78;;;9.60;99.90;;;9.85;83.07;101176.44;5092469;28;20079;-65
2023/01/14 02:17:51;;;;;;;34.40;8.18;;;9.60;99.90;;;9.84;83.32;101187.91;5092669;28;20064;-65
2023/01/14 02:20:29;;;;;;;34.90;7.57;;;9.60;99.90;;;9.85;83.18;101178.22;5074522;28;20444;-65
2023/01/14 02:23:38;;;;;;;34.92;8.45;;;9.60;99.90;;;9.74;83.39;101194.03;5074518;28;20059;-65
2023/01/14 02:26:57;;;;;;;35.17;9.05;;;9.60;99.90;;;9.59;84.71;101196.59;5074078;28;20048;-64
2023/01/14 02:30:07;;;;;;;36.58;7.80;;;9.40;99.90;;;9.29;84.97;101148.03;5092371;28;20055;-64
2023/01/14 02:32:46;;;;;;;34.38;7.95;;;9.30;99.90;;;9.38;85.26;101171.84;5074149;28;20489;-64
2023/01/14 02:35:31;;;;;;;38.80;8.82;;;9.20;99.90;;;9.41;85.47;101161.28;5074551;28;20083;-64
2023/01/14 02:38:17;;;;;;;31.40;8.30;;;9.20;99.90;;;9.29;85.38;101156.81;5074250;28;20048;-64
2023/01/14 02:40:52;;;;;;;38.10;8.23;;;9.10;99.90;;;9.28;85.74;101151.53;5074165;28;20097;-64
2023/01/14 02:46:24;;;;;;;34.15;9.05;;;9.10;99.90;;;9.22;86.00;101146.22;5077927;28;20052;-64
2023/01/14 02:48:57;;;;;;;43.08;8.88;;;9.10;99.90;;;9.23;85.99;101140.97;5077981;28;20134;-64
2023/01/14 02:51:26;;;;;;;32.40;8.15;;;9.00;99.90;;;9.23;86.32;101135.72;5077960;28;20044;-64
2023/01/14 02:53:54;;;;;;;34.38;9.43;;;9.00;99.90;;;9.00;86.05;101103.91;5096017;28;20044;-64
2023/01/14 02:56:23;;;;;;;31.58;8.55;;;9.00;99.90;;;9.16;86.17;101136.53;5095736;28;20040;-64
2023/01/14 02:59:40;;;;;;;43.90;9.25;;;9.00;99.90;;;9.09;86.13;101129.47;5077693;28;20440;-65
2023/01/14 03:02:34;;;;;;;36.47;8.90;;;8.90;99.90;;;9.09;85.85;101138.28;5094559;28;20143;-64
2023/01/14 03:05:35;;;;;;;34.35;8.05;;;8.90;99.90;;;9.02;85.79;101125.88;5095606;28;20044;-64
2023/01/14 03:08:18;;;;;;;41.42;8.93;;;8.90;99.90;;;9.03;86.17;101117.13;5077520;28;20048;-64
2023/01/14 03:10:53;;;;;;;32.58;8.77;;;8.90;99.90;;;8.80;86.17;101094.13;5077536;28;20076;-64
2023/01/14 03:13:29;;;;;;;33.38;9.32;;;8.80;99.90;;;8.96;86.63;101117.09;5095618;28;20473;-64
2023/01/14 03:16:02;;;;;;;35.67;8.70;;;8.80;99.90;;;8.97;86.62;101109.16;5077367;28;20147;-64
2023/01/14 03:18:41;;;;;;;35.45;10.00;;;8.80;99.90;;;9.00;87.21;101097.75;5095559;28;20048;-64
2023/01/14 03:21:16;;;;;;;42.72;9.82;;;8.80;99.90;;;8.96;86.99;101080.16;5094190;28;20127;-64
2023/01/14 03:23:52;;;;;;;44.47;10.02;;;8.80;99.90;;;8.92;87.64;101094.19;5095239;28;20051;-64
2023/01/14 03:26:23;;;;;;;48.72;9.52;;;8.80;99.90;;;8.97;88.07;101087.19;5095339;28;20052;-64
2023/01/14 03:28:55;;;;;;;52.47;10.23;;;8.80;99.90;;;8.97;88.24;101087.19;5077088;28;20040;-64
2023/01/14 03:31:29;;;;;;;39.83;9.63;;;8.80;99.90;;;9.02;88.53;101086.31;5093967;28;20044;-65
2023/01/14 03:34:03;;;;;;;42.72;10.43;;;8.90;99.90;;;8.88;88.84;101039.66;5094090;28;20044;-64
2023/01/14 03:36:36;;;;;;;46.60;10.48;;;8.90;99.90;;;9.04;89.18;101054.66;5077031;28;20056;-64
2023/01/14 03:39:10;;;;;;;46.03;10.60;;;8.90;99.90;;;9.06;89.87;101055.56;5095190;28;20048;-64
2023/01/14 03:44:33;;;;;;;54.13;10.43;;;8.90;99.90;;;9.09;91.11;101051.19;5095165;28;20136;-64
2023/01/14 03:47:01;;;;;;;52.40;11.30;;;9.00;99.90;;;9.14;91.95;101040.63;5095389;28;20075;-64
2023/01/14 03:49:31;;;;;;;52.53;10.57;;;9.00;99.90;;;9.01;92.22;101001.91;5094742;28;20063;-64
2023/01/14 03:52:10;;;;;;;40.88;10.15;;;8.90;99.90;;;9.19;92.56;101023.09;5095042;28;20151;-64
2023/01/14 03:54:44;;;;;;;47.80;9.90;;;9.00;99.90;;;9.23;92.58;101010.78;5094767;28;20054;-64
2023/01/14 03:57:18;;;;;;;53.28;10.95;;;9.00;99.90;;;9.19;92.69;101004.63;5094745;28;20040;-64
2023/01/14 03:59:55;;;;;;;56.97;10.50;;;9.00;99.90;;;9.18;93.10;100987.00;5077045;28;20036;-64
2023/01/14 04:02:25;;;;;;;48.08;9.73;;;9.00;99.90;;;9.17;93.17;100972.06;5094660;28;20056;-64
2023/01/14 04:04:56;;;;;;;45.17;9.90;;;9.00;99.90;;;9.27;93.35;100987.00;5095160;28;20047;-64
2023/01/14 04:07:25;;;;;;;;;;;9.10;99.90;;;9.26;93.20;100969.44;5095303;28;20477;-64
2023/01/14 04:09:53;;;;;;;45.53;10.23;;;9.10;99.90;;;9.23;93.20;100974.72;5094596;28;20288;-65
2023/01/14 04:12:22;;;;;;;42.17;10.18;;;9.10;99.90;;;9.28;93.50;100966.78;5094711;28;20552;-64
2023/01/14 04:17:37;;;;;;;45.45;10.02;;;9.10;99.90;;;9.29;92.96;100972.06;5094641;28;20074;-64
2023/01/14 04:20:09;;;;;;;45.13;10.13;;;9.10;99.90;;;9.25;92.90;100965.06;5095212;28;20052;-64
2023/01/14 04:22:38;;;;;;;49.05;10.20;;;9.20;99.90;;;9.30;92.97;100939.53;5094651;28;20067;-70
2023/01/14 04:25:06;;;;;;;47.88;10.73;;;9.20;99.90;;;9.27;92.24;100944.78;5094326;28;20036;-64
2023/01/14 04:27:35;;;;;;;43.63;9.50;;;9.10;99.90;;;9.23;92.78;100953.59;5094509;28;20056;-65
2023/01/14 04:30:05;;;;;;;51.55;11.18;;;9.10;99.90;;;9.25;92.69;100936.03;5076126;28;20052;-64
2023/01/14 04:32:33;;;;;;;40.53;9.88;;;9.10;99.90;;;9.21;93.15;100939.53;5094318;28;20036;-65
2023/01/14 04:35:02;;;;;;;48.85;10.65;;;9.10;99.90;;;9.00;93.94;100913.09;5094217;28;20533;-65
2023/01/14 04:37:32;;;;;;;42.33;9.35;;;8.90;99.90;;;9.10;94.29;100935.97;5094009;28;20044;-65
2023/01/14 04:40:00;;;;;;;43.67;9.35;;;9.00;99.90;;;8.98;94.63;100935.94;5094523;28;20448;-65
2023/01/14 04:42:30;;;;;;;46.70;9.95;;;8.90;99.90;;;9.04;94.81;100926.28;5094193;28;20122;-65
2023/01/14 04:45:01;;;;;;;51.20;10.70;;;8.90;99.90;;;9.07;93.89;100921.03;5093804;28;20040;-65
2023/01/14 04:47:31;;;;;;;41.28;10.20;;;9.00;99.90;;;9.04;94.41;100913.09;5093994;28;20073;-65
2023/01/14 04:50:30;;;;;;;36.65;8.95;;;8.90;99.90;;;9.06;94.36;100918.34;5093665;28;20040;-65
2023/01/14 04:52:50;;;;;;;35.30;9.30;;;9.00;99.90;;;9.04;94.57;100915.72;5093437;28;20039;-65
2023/01/14 04:55:18;;;;;;;34.63;9.63;;;8.90;99.90;;;9.02;94.24;100916.59;5093865;28;20040;-65
2023/01/14 04:57:47;;;;;;;46.47;9.65;;;8.90;99.90;;;9.04;94.38;100910.44;5093456;28;20284;-65
2023/01/14 05:00:17;;;;;;;36.08;9.52;;;8.90;99.90;;;9.16;93.96;100899.03;5075409;28;20143;-65
2023/01/14 05:02:45;;;;;;;38.15;9.70;;;8.90;99.90;;;9.12;93.73;100893.78;5093434;28;20093;-65
2023/01/14 05:05:13;;;;;;;48.97;9.65;;;9.00;99.90;;;8.97;94.21;100894.59;5075130;28;20055;-65
2023/01/14 05:07:42;;;;;;;37.38;8.85;;;8.90;99.90;;;8.93;94.09;100885.81;5093535;28;20043;-65
2023/01/14 05:10:12;;;;;;;42.60;9.80;;;8.90;99.90;;;8.99;94.56;100877.03;5093265;28;20067;-65
2023/01/14 05:12:55;;;;;;;43.05;9.30;;;8.90;99.90;;;8.95;94.09;100852.41;5093455;28;20067;-65
2023/01/14 05:15:25;;;;;;;43.95;10.55;;;8.90;99.90;;;9.01;93.88;100851.53;5093370;28;20109;-65
2023/01/14 05:17:54;;;;;;;39.90;8.68;;;8.90;99.90;;;9.07;94.08;100851.53;5075207;28;20134;-65
2023/01/14 05:20:24;;;;;;;36.58;8.55;;;8.90;99.90;;;8.42;93.64;100742.44;5092951;28;20128;-66
2023/01/14 05:22:53;;;;;;;39.20;8.52;;;8.90;99.90;;;9.03;93.91;100833.94;5093223;28;20044;-66
2023/01/14 05:25:22;;;;;;;33.25;8.75;;;8.90;99.90;;;9.04;93.96;100833.06;5091838;28;20047;-66
2023/01/14 05:27:51;;;;;;;36.37;8.00;;;8.90;99.90;;;8.99;93.76;100846.25;5092789;28;20056;-65
2023/01/14 05:30:19;;;;;;;46.30;9.70;;;8.90;99.90;;;8.94;93.68;100823.38;5092770;28;20078;-65
2023/01/14 05:32:48;;;;;;;39.42;9.05;;;8.80;99.90;;;8.96;94.45;100822.50;5092878;28;20097;-65
2023/01/14 05:35:18;;;;;;;40.45;9.45;;;8.80;99.90;;;8.97;93.92;100807.56;5093105;28;20150;-65
2023/01/14 05:37:47;;;;;;;34.85;9.15;;;8.80;99.90;;;8.88;94.16;100815.47;5093308;28;20044;-65
2023/01/14 05:40:15;;;;;;;37.63;8.25;;;8.80;99.90;;;8.98;93.63;100812.81;5092932;28;20052;-65
2023/01/14 05:45:47;;;;;;;39.85;8.90;;;8.80;99.90;;;8.95;93.22;100782.94;5092663;28;20090;-65
2023/01/14 05:48:17;;;;;;;40.83;8.45;;;8.80;99.90;;;8.80;92.96;100797.00;5092976;28;20044;-65
2023/01/14 05:50:45;;;;;;;45.40;9.05;;;8.80;99.90;;;8.86;93.74;100785.56;5092580;28;20469;-65
2023/01/14 05:53:14;;;;;;;32.10;8.07;;;8.70;99.90;;;8.81;93.57;100787.31;5092518;28;20044;-65
2023/01/14 05:55:42;;;;;;;35.05;7.43;;;8.70;99.90;;;8.91;93.86;100778.53;5092425;28;20067;-65
2023/01/14 05:58:12;;;;;;;36.50;8.07;;;8.80;99.90;;;8.93;93.62;100771.50;5092782;28;20056;-65
2023/01/14 06:06:23;;;;;;;44.15;9.32;;;8.70;99.90;;;8.16;94.02;100618.53;5092402;28;20046;-65
2023/01/14 06:08:55;;;;;;;36.33;9.07;;;8.70;99.90;;;8.79;94.63;100774.13;5092427;28;20040;-65
2023/01/14 06:11:26;;;;;;;43.90;8.63;;;8.70;99.90;;;8.78;95.00;100742.50;5092702;28;20044;-65
2023/01/14 06:13:57;;;;;;;40.55;8.60;;;8.70;99.90;;;8.83;94.83;100715.22;5092948;28;20040;-67
2023/01/14 06:16:28;;;;;;;36.08;7.88;;;8.70;99.90;;;8.81;95.50;100695.91;5092761;28;20047;-66
2023/01/14 06:18:57;;;;;;;42.60;9.48;;;8.70;99.90;;;8.41;95.46;100653.69;5096625;28;20067;-65
2023/01/14 06:21:29;;;;;;;35.20;7.53;;;8.70;99.90;;;8.68;96.16;100686.22;5097025;28;20038;-65
2023/01/14 06:23:59;;;;;;;31.00;8.00;;;8.60;99.90;;;8.65;96.31;100680.09;5078536;28;20134;-65
2023/01/14 06:26:28;;;;;;;37.13;8.20;;;8.60;99.90;;;8.63;96.82;100679.22;5096274;28;20052;-65
2023/01/14 06:29:03;;;;;;;43.92;9.75;;;8.60;99.90;;;8.60;97.12;100668.66;5096318;28;20470;-66
2023/01/14 06:31:32;;;;;;;38.15;8.60;;;8.50;99.90;;;8.57;97.76;100637.91;5096363;28;20461;-67
2023/01/14 06:34:01;;;;;;;38.85;8.27;;;8.50;99.90;;;8.61;98.03;100644.94;5078301;28;20456;-67
2023/01/14 06:36:31;;;;;;;28.85;8.20;;;8.50;99.90;;;8.61;98.54;100641.41;5096548;28;20044;-67
2023/01/14 06:38:59;;;;;;;34.20;8.10;;;8.50;99.90;;;8.60;98.74;100643.16;5096686;28;20063;-68
2023/01/14 06:41:28;;;;;;;29.58;8.35;;;8.60;99.90;;;8.73;98.92;100630.88;5096145;28;20499;-67
2023/01/14 06:43:56;;;;;;;34.60;8.75;;;8.60;99.90;;;8.59;99.58;100630.00;5078420;28;20430;-67
2023/01/14 06:46:26;;;;;;;30.65;8.20;;;8.50;99.90;;;8.46;100.00;100613.28;5096386;28;20101;-66
2023/01/14 06:48:55;;;;;;;33.90;8.57;;;8.40;99.90;;;8.55;100.00;100593.97;5096103;28;20071;-67
2023/01/14 06:51:24;;;;;;;31.88;8.75;;;8.40;99.90;;;8.60;100.00;100598.34;5096082;28;20420;-66
2023/01/14 06:53:53;;;;;;;24.65;8.23;;;8.50;99.90;;;8.57;100.00;100576.41;5096193;28;20446;-67
2023/01/14 06:56:21;;;;;;;34.78;8.38;;;8.50;99.90;;;8.36;100.00;100558.84;5095993;28;20044;-66
2023/01/14 06:58:50;;;;;;;34.58;9.15;;;8.40;99.90;;;8.39;100.00;100557.97;5078268;28;20104;-66
2023/01/14 07:01:20;;;;;;;26.85;8.32;;;8.40;99.90;;;8.33;100.00;100519.31;5096433;28;20044;-67
2023/01/14 07:03:50;;;;;;;28.77;8.55;;;8.50;99.90;;;8.57;100.00;100542.13;5096026;28;20076;-66
2023/01/14 07:06:18;;;;;;;29.30;7.55;;;8.50;99.90;;;8.63;100.00;100544.75;5095735;28;20139;-67
2023/01/14 07:08:47;;;;;;;20.65;7.82;;;8.50;99.90;;;8.51;100.00;100563.22;5095689;28;20072;-66
2023/01/14 07:11:15;;;;;;;24.35;8.68;;;8.50;99.90;;;8.56;100.00;100549.16;5095722;28;20071;-67
2023/01/14 07:13:44;;;;;;;20.55;7.40;;;8.50;99.90;;;8.56;100.00;100550.91;5095624;28;20050;-67
2023/01/14 07:16:12;;;;;;;24.70;8.43;;;8.50;99.90;;;8.58;100.00;100522.78;5095590;28;20032;-66
2023/01/14 07:18:41;;;;;;;23.15;8.30;;;8.50;99.90;;;8.61;100.00;100523.69;5095581;28;20036;-66
2023/01/14 07:21:10;;;;;;;26.98;7.95;;;8.50;99.90;;;8.57;100.00;100548.28;5095755;28;20690;-66
2023/01/14 07:23:39;;;;;;;24.33;7.53;;;8.50;99.90;;;8.68;100.00;100479.72;5095684;28;20102;-67
2023/01/14 07:26:07;;;;;;;21.70;7.85;;;8.60;99.90;;;8.66;100.00;100485.00;5095245;28;20048;-66
2023/01/14 07:28:36;;;;;;;20.80;7.35;;;8.60;99.90;;;8.71;100.00;100471.81;5076675;28;20563;-66
2023/01/14 07:31:06;;;;;;;17.60;7.35;;;8.60;99.90;;;8.68;100.00;100466.53;5095189;28;20127;-67
2023/01/14 07:33:35;;;;;;;18.60;6.13;;;8.60;99.90;;;8.68;100.00;100446.31;5095198;28;20494;-67
2023/01/14 07:36:04;;;;;;;16.88;6.82;;;8.60;99.90;;;8.74;100.00;100443.66;5094976;28;20067;-67
2023/01/14 07:38:34;;;;;;;19.48;7.07;;;8.60;99.90;;;8.74;100.00;100419.94;5095609;28;20040;-67
2023/01/14 07:41:09;;;;;;;17.05;6.40;;;8.60;99.90;;;8.76;100.00;100423.44;5095079;28;20063;-67
2023/01/14 07:43:37;;;;;;;13.90;6.30;;;8.70;99.90;;;8.73;100.00;100402.34;5095322;28;20044;-67
2023/01/14 07:46:09;;;;;;;14.98;6.60;;;8.60;99.90;;;8.83;100.00;100421.63;5093961;28;20051;-68
2023/01/14 07:48:37;;;;;;;10.77;6.68;;;8.70;99.90;;;8.86;100.00;100392.63;5095292;28;20048;-68
2023/01/14 07:51:08;;;;;;;11.45;6.20;;;8.80;99.90;;;8.65;100.00;100361.97;5094989;28;20035;-67
2023/01/14 07:53:38;;;;;;;11.85;6.40;;;8.70;99.90;;;8.80;100.00;100456.81;5095604;28;20064;-68
2023/01/14 07:56:08;;;;;;;14.45;6.50;;;8.70;99.90;;;8.88;100.00;100377.69;5095654;28;20461;-69
2023/01/14 07:58:36;;;;;;;16.45;7.30;;;8.70;99.90;;;8.92;100.00;100371.50;5095303;28;20078;-67
2023/01/14 08:01:06;;;;;;;16.83;7.45;;;8.80;99.90;;;8.99;100.00;100350.34;5095255;28;20039;-68
2023/01/14 08:03:36;;;;;;;14.32;7.50;;;8.90;99.90;;;8.97;100.00;100377.63;5095117;28;20118;-66
2023/01/14 08:06:07;;;;;;;15.27;7.40;;;8.90;99.90;;;9.06;100.00;100340.63;5095294;28;20068;-68
2023/01/14 08:08:37;;;;;;;15.27;7.93;;;8.90;99.90;;;9.00;100.00;100340.69;5076695;28;20117;-66
2023/01/14 08:11:05;;;;;;;13.68;7.20;;;8.90;99.90;;;9.03;100.00;100335.38;5094520;28;20046;-68
2023/01/14 08:13:33;;;;;;;14.80;8.02;;;8.90;99.90;;;9.02;100.00;100333.63;5094449;28;20068;-67
2023/01/14 08:16:03;;;;;;;13.50;7.82;;;8.90;99.90;;;9.00;100.00;100322.22;5094614;28;20147;-66
2023/01/14 08:18:34;;;;;;;18.52;8.35;;;8.90;99.90;;;8.95;100.00;100330.16;5094285;28;20066;-66
2023/01/14 08:21:05;;;;;;;13.93;7.75;;;8.90;99.90;;;8.29;100.00;100155.75;5076442;28;20047;-67
2023/01/14 08:23:34;;;;;;;14.50;8.18;;;8.90;99.90;;;9.05;100.00;100305.47;5076284;28;20055;-67
2023/01/14 08:26:07;;;;;;;15.38;8.27;;;8.90;99.90;;;9.05;100.00;100268.53;5076008;28;20490;-67
2023/01/14 08:28:37;;;;;;;14.82;7.88;;;9.00;99.90;;;9.16;100.00;100280.75;5094135;28;20110;-67
2023/01/14 08:31:08;;;;;;;12.20;7.38;;;9.00;99.90;;;9.18;100.00;100258.75;5092912;28;20131;-67
2023/01/14 08:33:36;;;;;;;14.23;8.23;;;9.00;99.90;;;9.19;100.00;100288.66;5094065;28;20048;-67
2023/01/14 08:36:08;;;;;;;18.30;8.05;;;9.10;99.90;;;9.05;100.00;100246.56;5093823;28;20036;-67
2023/01/14 08:38:39;;;;;;;16.38;7.85;;;9.10;99.90;;;9.16;100.00;100264.91;5094480;28;20078;-67
2023/01/14 08:41:11;;;;;;;17.45;8.65;;;9.10;99.90;;;9.20;100.00;100256.97;5092905;28;20055;-67
2023/01/14 08:43:41;;;;;;;14.07;8.40;;;9.10;99.90;;;9.23;100.00;100258.72;5093729;28;20048;-66
2023/01/14 08:46:11;;;;;;;20.30;8.63;;;9.10;99.90;;;8.58;100.00;100117.75;5093966;28;20044;-67
2023/01/14 08:48:40;;;;;;;17.48;8.35;;;9.10;99.90;;;9.19;100.00;100217.44;5093715;28;20040;-66
2023/01/14 08:51:10;;;;;;;18.73;8.95;;;9.10;99.90;;;9.28;100.00;100170.72;5093574;28;20078;-67
2023/01/14 08:53:40;;;;;;;14.77;8.13;;;9.20;99.90;;;9.07;100.00;100161.25;5075632;28;20048;-66
2023/01/14 08:56:15;;;;;;;16.60;8.38;;;9.10;99.90;;;9.33;100.00;100189.16;5093808;28;20048;-66
2023/01/14 08:58:45;;;;;;;16.80;8.05;;;9.20;99.90;;;9.36;100.00;100184.72;5075536;28;20390;-66
2023/01/14 09:01:14;;;;;;;18.73;8.65;;;9.20;99.90;;;9.34;100.00;100180.31;5093465;28;20050;-66
2023/01/14 09:03:43;;;;;;;17.20;7.75;;;9.20;99.90;;;9.45;100.00;100173.16;5093474;28;20572;-66
2023/01/14 09:06:14;;;;;;;19.20;7.43;;;9.30;99.90;;;9.33;100.00;100137.22;5075185;28;20036;-67
2023/01/14 09:17:12;;;;;;;26.95;8.00;;;9.40;99.90;;;9.51;100.00;100160.78;5093442;28;20396;-67
2023/01/14 09:19:46;;;;;;;23.52;7.80;;;9.40;99.90;;;9.57;100.00;100133.44;5093458;28;20113;-66
2023/01/14 09:22:19;;;;;;;17.38;7.82;;;9.40;99.90;;;9.47;100.00;100113.31;5093173;28;20555;-67
2023/01/14 09:24:47;;;;;;;18.58;7.50;;;9.50;99.90;;;9.49;100.00;100093.94;5093073;28;20046;-67
2023/01/14 09:27:18;;;;;;;17.60;7.03;;;9.50;99.90;;;9.53;100.00;100094.75;5093314;28;20040;-67
2023/01/14 09:29:47;;;;;;;16.05;6.75;;;9.50;99.90;;;9.70;100.00;100085.72;5075197;28;20097;-67
2023/01/14 09:32:18;;;;;;;12.93;6.30;;;9.50;99.90;;;9.63;100.00;100078.78;5093035;28;20473;-67
2023/01/14 09:34:49;;;;;;;16.42;6.65;;;9.60;99.90;;;9.72;100.00;100077.78;5093713;28;20068;-67
2023/01/14 09:37:20;;;;;;;13.43;5.82;;;9.60;99.90;;;9.76;100.00;100069.81;5093483;28;20128;-67
2023/01/14 09:39:49;;;;;;;16.67;6.07;;;9.60;99.90;;;9.63;100.00;100031.28;5075073;28;20504;-67
2023/01/14 09:42:26;;;;;;;15.47;5.83;;;9.60;99.90;;;9.79;100.00;100056.53;5092888;28;20489;-66
2023/01/14 09:45:03;;;;;;;14.13;5.90;;;9.60;99.90;;;9.74;100.00;100034.63;5092847;28;20270;-66
2023/01/14 09:47:31;;;;;;;16.73;6.28;;;9.60;99.90;;;9.73;100.00;100032.91;5092815;28;20040;-67
2023/01/14 09:49:59;;;;;;;13.98;6.43;;;9.60;99.90;;;9.70;100.00;100050.53;5092791;28;20647;-67
2023/01/14 09:52:53;;;;;;;15.88;6.57;;;9.60;99.90;;;9.76;100.00;100019.63;5092453;28;20050;-67
2023/01/14 09:55:35;;;;;;;16.20;7.50;;;9.60;99.90;;;9.73;100.00;100009.13;5092582;28;20036;-67
2023/01/14 09:58:11;;;;;;;15.82;6.80;;;9.60;99.90;;;9.77;100.00;100002.91;5092665;28;20056;-67
2023/01/14 10:00:50;;;;;;;11.55;6.15;;;9.60;99.90;;;9.26;100.00;99913.91;5092640;28;20482;-66
2023/01/14 10:03:31;;;;;;;19.30;6.25;;;9.70;99.90;;;9.79;100.00;99982.59;5092652;28;20146;-67
2023/01/14 10:06:03;;;;;;;15.40;6.05;;;9.70;99.90;;;9.86;100.00;99989.56;5074637;28;20051;-67
2023/01/14 10:08:37;;;;;;;13.05;5.72;;;9.70;99.90;;;9.85;100.00;99957.91;5092528;28;20562;-67
2023/01/14 10:11:07;;;;;;;15.98;5.53;;;9.70;99.90;;;9.34;100.00;99922.59;5092521;28;20052;-67
2023/01/14 10:13:40;;;;;;;12.63;5.45;;;9.80;99.90;;;9.87;100.00;99954.31;5074659;28;20044;-67
2023/01/14 10:16:14;;;;;;;13.82;5.35;;;9.80;99.90;;;9.92;100.00;99936.63;5074619;28;20482;-67
2023/01/14 10:18:51;;;;;;;10.60;5.22;;;9.80;99.90;;;9.95;100.00;99957.69;5092722;28;20044;-67
2023/01/14 10:21:27;;;;;;;13.07;4.75;;;9.80;99.90;;;9.99;100.00;99954.09;5092285;28;20448;-67
2023/01/14 10:23:55;;;;;;;12.25;5.47;;;9.80;99.90;;;10.03;100.00;99937.31;5092610;28;20071;-67
2023/01/14 10:26:32;;;;;;;15.55;5.38;;;9.90;99.90;;;10.06;100.00;99973.38;5092270;28;20405;-67
2023/01/14 10:29:12;;;;;;;11.30;4.88;;;9.90;99.90;;;10.09;100.00;99932.81;5092508;28;20068;-67
2023/01/14 10:31:45;;;;;;;10.88;5.15;;;9.90;99.90;;;10.13;100.00;99930.13;5092657;28;20044;-67
2023/01/14 10:34:20;;;;;;;11.95;5.55;;;9.90;99.90;;;10.14;100.00;99928.38;5092732;28;20451;-67
2023/01/14 10:36:48;;;;;;;9.50;4.60;;;10.00;99.90;;;10.18;100.00;99880.69;5092666;28;20047;-67
2023/01/14 10:39:16;;;;;;;9.80;4.85;;;10.00;99.90;;;10.21;100.00;99856.00;5092397;28;20494;-67
2023/01/14 10:41:51;;;;;;;9.00;4.80;;;10.10;99.90;;;10.24;100.00;99885.88;5091430;28;20139;-67
2023/01/14 10:44:25;;;;;;;11.45;5.22;;;10.10;99.90;;;10.23;100.00;99831.28;5092777;28;20458;-67
2023/01/14 10:46:57;;;;;;;13.48;5.60;;;10.10;99.90;;;10.36;100.00;99832.78;5092693;28;20040;-67
2023/01/14 10:49:37;;;;;;;10.02;4.85;;;10.20;99.90;;;10.29;100.00;99825.00;5092918;28;20143;-67
2023/01/14 10:52:24;;;;;;;12.07;5.22;;;10.20;99.90;;;10.36;100.00;99829.25;5092441;28;20119;-67
2023/01/14 10:54:59;;;;;;;13.93;5.25;;;10.20;99.90;;;10.36;100.00;99846.00;5074349;28;20059;-67
2023/01/14 10:57:31;;;;;;;15.27;5.07;;;10.20;99.90;;;10.23;100.00;99826.00;5092146;28;20123;-67
2023/01/14 11:00:01;;;;;;;11.68;5.38;;;10.20;99.90;;;10.44;100.00;99837.91;5073997;28;20040;-68